createdAt,value
2018-09-25T00:02:22.711Z,10.4
2018-09-25T00:07:18.914Z,10.4
2018-09-25T00:12:14.213Z,10.4
2018-09-25T00:17:09.884Z,10.5
2018-09-25T00:22:06.067Z,11.3
2018-09-25T00:27:04.105Z,10.6
2018-09-25T00:31:59.800Z,10.5
2018-09-25T00:36:55.652Z,10.5
2018-09-25T00:41:51.226Z,10.4
2018-09-25T00:46:46.921Z,10.4
2018-09-25T00:51:43.377Z,11.2
2018-09-25T00:56:39.181Z,11.2
2018-09-25T01:01:35.240Z,10.4
2018-09-25T01:06:31.174Z,10.4
2018-09-25T01:11:27.039Z,11.2
2018-09-25T01:16:22.832Z,10.4
2018-09-25T01:21:18.655Z,10.3
2018-09-25T01:26:14.286Z,10.9
2018-09-25T01:31:09.514Z,10.4
2018-09-25T01:36:05.464Z,10.4
2018-09-25T01:41:01.084Z,10.4
2018-09-25T01:45:56.671Z,10.3
2018-09-25T01:50:52.431Z,11.1
2018-09-25T01:55:48.246Z,10.2
2018-09-25T02:00:44.147Z,11
2018-09-25T02:05:40.034Z,10.2
2018-09-25T02:10:35.494Z,10.1
2018-09-25T02:15:31.410Z,10
2018-09-25T02:20:26.870Z,10.8
2018-09-25T02:25:23.079Z,9.9
2018-09-25T02:30:18.899Z,10.7
2018-09-25T02:35:14.674Z,9.8
2018-09-25T02:40:10.582Z,9.8
2018-09-25T02:45:06.218Z,9.9
2018-09-25T02:50:02.090Z,10.6
2018-09-25T02:54:57.840Z,10.5
2018-09-25T02:59:53.552Z,9.7
2018-09-25T03:04:49.446Z,9.7
2018-09-25T03:09:44.995Z,9.6
2018-09-25T03:14:40.804Z,9.6
2018-09-25T03:19:36.490Z,9.6
2018-09-25T03:24:32.166Z,10.4
2018-09-25T03:29:27.201Z,9.6
2018-09-25T03:34:22.833Z,10.3
2018-09-25T03:39:18.403Z,9.5
2018-09-25T03:44:13.951Z,9.5
2018-09-25T03:49:09.623Z,9.4
2018-09-25T03:54:05.186Z,9.4
2018-09-25T03:59:01.004Z,9.4
2018-09-25T04:03:57.436Z,10.1
2018-09-25T04:08:53.096Z,10
2018-09-25T04:13:48.670Z,10
2018-09-25T04:18:44.249Z,7.3
2018-09-25T04:23:40.247Z,10.1
2018-09-25T04:28:35.875Z,9.2
2018-09-25T04:33:31.279Z,9.2
2018-09-25T04:38:27.031Z,8.9
2018-09-25T04:43:23.091Z,10
2018-09-25T04:48:18.908Z,9.2
2018-09-25T04:53:14.846Z,9.3
2018-09-25T04:58:10.612Z,10.1
2018-09-25T05:03:10.580Z,9
2018-09-25T05:08:05.210Z,9.2
2018-09-25T05:13:00.884Z,9.1
2018-09-25T05:17:56.540Z,9.2
2018-09-25T05:22:51.190Z,9.1
2018-09-25T05:27:46.999Z,9.2
2018-09-25T05:32:42.531Z,9.3
2018-09-25T05:37:38.295Z,9.3
2018-09-25T05:42:33.391Z,9.3
2018-09-25T05:47:28.953Z,9.3
2018-09-25T05:52:24.752Z,9.3
2018-09-25T05:57:20.422Z,9.3
2018-09-25T06:02:16.594Z,9.3
2018-09-25T06:07:11.405Z,9.4
2018-09-25T06:12:07.985Z,9.4
2018-09-25T06:17:03.540Z,10.3
2018-09-25T06:21:59.846Z,10.3
2018-09-25T06:26:55.065Z,10.3
2018-09-25T06:31:50.384Z,9.5
2018-09-25T06:36:45.976Z,9.5
2018-09-25T06:41:41.972Z,9.6
2018-09-25T06:46:38.144Z,9.7
2018-09-25T06:51:33.999Z,9.7
2018-09-25T06:56:29.723Z,9.8
2018-09-25T07:01:25.523Z,9.9
2018-09-25T07:06:21.682Z,10.8
2018-09-25T07:11:18.754Z,10.1
2018-09-25T07:16:13.911Z,10.2
2018-09-25T07:21:09.178Z,10.3
2018-09-25T07:26:04.925Z,10.3
2018-09-25T07:31:00.944Z,11.2
2018-09-25T07:35:56.842Z,11.3
2018-09-25T07:40:52.586Z,11.3
2018-09-25T07:45:48.473Z,11.3
2018-09-25T07:50:44.044Z,11.1
2018-09-25T07:55:39.982Z,11.4
2018-09-25T08:00:36.253Z,11.5
2018-09-25T08:05:31.950Z,10.8
2018-09-25T08:10:27.872Z,11.6
2018-09-25T08:15:23.658Z,11.7
2018-09-25T08:20:19.855Z,11.8
2018-09-25T08:25:15.074Z,11.8
2018-09-25T08:30:11.159Z,11.1
2018-09-25T08:35:06.968Z,11.7
2018-09-25T08:40:02.876Z,12.1
2018-09-25T08:44:58.799Z,11.4
2018-09-25T08:49:54.889Z,12.2
2018-09-25T08:54:50.570Z,12.4
2018-09-25T08:59:46.536Z,12.5
2018-09-25T09:04:42.133Z,12.6
2018-09-25T09:09:37.962Z,12.7
2018-09-25T09:14:34.045Z,12.6
2018-09-25T09:19:29.639Z,12.9
2018-09-25T09:24:25.141Z,12.2
2018-09-25T09:29:20.214Z,13.1
2018-09-25T09:34:16.009Z,13.2
2018-09-25T09:39:11.936Z,13
2018-09-25T09:44:07.562Z,13.4
2018-09-25T09:49:03.666Z,12.9
2018-09-25T09:53:59.826Z,13.2
2018-09-25T09:58:56.507Z,13.4
2018-09-25T10:03:52.564Z,13.8
2018-09-25T10:08:48.368Z,14.8
2018-09-25T10:13:44.307Z,14.2
2018-09-25T10:18:40.275Z,15.1
2018-09-25T10:23:36.204Z,14.5
2018-09-25T10:28:32.523Z,15.4
2018-09-25T10:33:28.059Z,14.7
2018-09-25T10:38:23.806Z,15.4
2018-09-25T10:43:19.637Z,15.5
2018-09-25T10:48:15.504Z,14.9
2018-09-25T10:53:11.546Z,14.9
2018-09-25T10:58:07.572Z,15.6
2018-09-25T11:03:03.776Z,15.2
2018-09-25T11:07:59.811Z,15.4
2018-09-25T11:12:55.912Z,15.6
2018-09-25T11:17:51.490Z,16.5
2018-09-25T11:22:47.621Z,16.6
2018-09-25T11:27:43.537Z,16.8
2018-09-25T11:32:39.683Z,16.9
2018-09-25T11:37:35.816Z,16.3
2018-09-25T11:42:31.857Z,17.1
2018-09-25T11:47:27.759Z,17.2
2018-09-25T11:52:23.740Z,17.4
2018-09-25T11:57:19.884Z,17.4
2018-09-25T12:02:16.085Z,15.6
2018-09-25T12:07:12.334Z,16.9
2018-09-25T12:12:07.927Z,16.9
2018-09-25T12:17:03.784Z,16.8
2018-09-25T12:21:59.614Z,16.6
2018-09-25T12:26:55.546Z,16.5
2018-09-25T12:31:51.370Z,16.4
2018-09-25T12:36:47.406Z,15.7
2018-09-25T12:41:43.251Z,15.5
2018-09-25T12:46:38.868Z,16.3
2018-09-25T12:51:34.712Z,15.6
2018-09-25T12:56:30.677Z,16.5
2018-09-25T13:01:26.287Z,16.6
2018-09-25T13:06:22.146Z,16.5
2018-09-25T13:11:17.989Z,16.4
2018-09-25T13:16:13.406Z,15.6
2018-09-25T13:21:09.244Z,16.4
2018-09-25T13:26:05.044Z,15.8
2018-09-25T13:31:00.874Z,16.6
2018-09-25T13:35:56.514Z,16.5
2018-09-25T13:40:52.465Z,15.7
2018-09-25T13:45:48.269Z,15.6
2018-09-25T13:50:43.899Z,15.9
2018-09-25T13:55:39.603Z,16.2
2018-09-25T14:00:35.361Z,15.4
2018-09-25T14:05:31.173Z,16.1
2018-09-25T14:10:26.790Z,15.4
2018-09-25T14:15:22.296Z,16
2018-09-25T14:20:17.997Z,16
2018-09-25T14:25:13.850Z,15.9
2018-09-25T14:30:09.667Z,15.8
2018-09-25T14:35:05.498Z,15.1
2018-09-25T14:40:01.315Z,15.8
2018-09-25T14:44:56.938Z,15
2018-09-25T14:49:52.709Z,14.9
2018-09-25T14:54:48.667Z,15.6
2018-09-25T14:59:44.426Z,14.9
2018-09-25T15:04:40.637Z,14.8
2018-09-25T15:09:36.158Z,15.5
2018-09-25T15:14:32.195Z,15.2
2018-09-25T15:19:27.828Z,15.1
2018-09-25T15:24:23.930Z,14.6
2018-09-25T15:29:19.938Z,15.3
2018-09-25T15:34:16.055Z,15.3
2018-09-25T15:39:11.873Z,15.2
2018-09-25T15:44:07.547Z,15.2
2018-09-25T15:49:03.255Z,14.4
2018-09-25T15:53:59.985Z,15.1
2018-09-25T15:58:56.014Z,15.1
2018-09-25T16:03:51.346Z,15
2018-09-25T16:08:47.172Z,14.9
2018-09-25T16:13:42.956Z,13.6
2018-09-25T16:18:38.437Z,13.6
2018-09-25T16:23:34.319Z,14.8
2018-09-25T16:28:29.909Z,14
2018-09-25T16:33:25.427Z,14.7
2018-09-25T16:38:20.504Z,14.6
2018-09-25T16:43:16.210Z,14.5
2018-09-25T16:48:12.534Z,14.4
2018-09-25T16:53:08.779Z,13.6
2018-09-25T16:58:04.559Z,13.5
2018-09-25T17:03:00.472Z,13.5
2018-09-25T17:07:56.135Z,13.5
2018-09-25T17:12:51.856Z,14.2
2018-09-25T17:17:48.387Z,14.1
2018-09-25T17:22:44.013Z,14.1
2018-09-25T17:27:39.953Z,14
2018-09-25T17:32:35.898Z,12.4
2018-09-25T17:37:32.084Z,13.1
2018-09-25T17:42:27.943Z,13.4
2018-09-25T17:47:23.284Z,13.8
2018-09-25T17:52:19.296Z,13.1
2018-09-25T17:57:15.289Z,13.8
2018-09-25T18:02:11.529Z,13.8
2018-09-25T18:07:07.297Z,13.7
2018-09-25T18:12:03.069Z,13.6
2018-09-25T18:16:58.761Z,13.7
2018-09-25T18:21:54.589Z,13.7
2018-09-25T18:26:50.597Z,13.3
2018-09-25T18:31:47.127Z,12.9
2018-09-25T18:36:42.627Z,13.6
2018-09-25T18:41:38.457Z,12.9
2018-09-25T18:46:34.808Z,8.1
2018-09-25T18:51:30.744Z,13.5
2018-09-25T18:56:26.611Z,13.6
2018-09-25T19:01:23.172Z,13.6
2018-09-25T19:06:19.097Z,13.5
2018-09-25T19:11:15.276Z,13.5
2018-09-25T19:16:11.448Z,13.5
2018-09-25T19:21:06.917Z,13.5
2018-09-25T19:26:02.646Z,13.4
2018-09-25T19:30:59.538Z,13.4
2018-09-25T20:43:13.994Z,13
2018-09-25T20:48:09.478Z,13
2018-09-25T20:53:05.591Z,13
2018-09-25T20:58:01.697Z,11.3
2018-09-25T21:02:57.357Z,12.9
2018-09-25T21:07:52.894Z,12
2018-09-25T21:12:49.042Z,12.7
2018-09-25T21:17:44.891Z,12.6
2018-09-25T21:22:41.108Z,12.6
2018-09-25T21:27:37.252Z,12.1
2018-09-25T21:32:33.925Z,12.5
2018-09-25T21:37:29.725Z,12.5
2018-09-25T21:42:25.820Z,12.4
2018-09-25T21:47:21.669Z,12.4
2018-09-25T21:52:18.054Z,12.3
2018-09-25T21:57:14.758Z,11.9
2018-09-25T22:02:11.516Z,12.2
2018-09-25T22:07:07.135Z,12.2
2018-09-25T22:12:03.063Z,12.1
2018-09-25T22:16:59.222Z,12
2018-09-25T22:21:54.934Z,11.9
2018-09-25T22:26:50.803Z,11.9
2018-09-25T22:31:46.733Z,11.9
2018-09-25T22:36:42.862Z,11.9
2018-09-25T22:41:38.938Z,11.9
2018-09-25T22:46:35.221Z,11.9
2018-09-25T22:51:31.180Z,11.8
2018-09-25T22:56:27.563Z,11.8
2018-09-25T23:01:24.487Z,11.8
2018-09-25T23:06:20.015Z,11.8
2018-09-25T23:11:16.081Z,11.8
2018-09-25T23:16:12.486Z,11
2018-09-25T23:21:08.392Z,11.8
2018-09-25T23:26:04.534Z,11.8
2018-09-25T23:31:00.369Z,11.8
2018-09-25T23:35:56.528Z,11.8
2018-09-25T23:40:52.254Z,11.7
2018-09-25T23:45:49.103Z,11.6
2018-09-25T23:50:44.858Z,11.6
2018-09-25T23:55:40.719Z,10.8
